Cedarville, CA

9:47 AM PDT on October 02, 2014 (GMT -0700)
Garfield St. | Change Station
CLOSE
Current Station
Personal Weather Station
Location: Cedarville, CA
Elevation: 4700 ft
Nearby Weather Stations

Elev 4700 ft 41.53 °N, 120.18 °W | Updated 7 seconds ago

Clear
Clear
52.0 °F
Feels Like 52.0 °F
N
0.0
Wind Variable Wind from SE
Gusts 4.0 mph

Today
High -- | Low -- °F
--% Chance of Precip.
Yesterday
High -- | Low -- °F
Precip. -- in
6:58 AM 6:40 PM
First Quarter, 60% visible
Pressure 30.28 in
Visibility 10.0 miles
Clouds Clear
Dew Point 28 °F
Humidity 39%
Rainfall 0.00 in
Snow Depth 0 in , 1 in , 0 in
UV 1 out of 12
Pollen 5.80 out of 12
Air Quality Not available.
Flu Activity Not available.
METAR KAAT 021555Z AUTO 00000KT 10SM CLR 05/M04 A3028 RMK AO2 SLP254 T00501039

More Conditions Fewer Conditions

Pressure 30.28 in
Visibility 10.0 miles
Clouds Clear
Dew Point 28 °F
Humidity 39%
Rainfall 0.00 in
Snow Depth 0 in , 1 in , 0 in
UV 1 out of 12
Pollen 5.80 out of 12
Air Quality Not available.
Flu Activity Not available.
METAR KAAT 021555Z AUTO 00000KT 10SM CLR 05/M04 A3028 RMK AO2 SLP254 T00501039

More Conditions Fewer Conditions

10-Day Weather Forecast

Almanac

Astronomy

Oct. 02, 2014 Rise Set
Actual Time 6:58 AM PDT 6:40 PM PDT
Civil Twilight 6:30 AM PDT 7:08 PM PDT
Nautical Twilight 5:58 AM PDT 7:40 PM PDT
Astronomical Twilight 5:26 AM PDT 8:12 PM PDT
Moon 2:54 PM PDT 12:16 AM PDT
Length of Visible Light 12h 37m
Length of Day
11h 41m
Tomorrow will be 2m 45s shorter.
First Quarter, 60% of the Moon is Illuminated
Today
First Quarter
Oct 8
Full
Oct 15
Last Quarter
Oct 23
New
Oct 30
First Quarter

Today's Extremes

State Highs State Lows

Community

WunderPhotos

Upload Photos

1,758,294 photos uploaded!

WunderBlogs® & News

Nearby

Snow Depth

Station Depth Elevation
Burnside Lake 0 in 8139 ft
Spratt Creek 1 in 6200 ft
Fallen Leaf 0 in 6300 ft
Independence Camp 0 in 7000 ft
Heavenly Valley 0 in 8850 ft

Earthquake Activity

City Distance Mag. Time & Date
Lakeview, Oregon 38 miles 2.7 7:56 PM PDT
2014-10-01
Lakeview, Oregon 38 miles 3.0 1:55 PM PDT
2014-10-01
Lakeview, Oregon 38 miles 3.2 12:54 PM PDT
2014-10-01
Lakeview, Oregon 35 miles 2.5 10:36 AM PDT
2014-10-01
Minimum magnitude displayed is 2.5.

Coastal Water Temperatures

Place Temperature
No Stations Reporting

Nearby Weather Stations